createdAt,value
2016-09-26T12:37:23.257Z,22.86
2016-09-26T12:42:46.785Z,23.15
2016-09-26T12:47:46.735Z,23.25
2016-09-26T12:52:46.694Z,23.29
2016-09-26T12:57:46.347Z,23.21
2016-09-26T13:02:46.613Z,23.15
2016-09-26T13:07:46.442Z,23.21
2016-09-26T13:12:46.538Z,23.26
2016-09-26T13:17:46.211Z,23.4
2016-09-26T13:22:46.460Z,23.45
2016-09-26T13:27:46.429Z,23.6
2016-09-26T13:32:45.777Z,23.71
2016-09-26T13:41:01.473Z,23.7
2016-09-26T13:46:01.444Z,23.75
2016-09-26T13:51:01.093Z,23.72
2016-09-26T13:56:01.051Z,23.66
2016-09-26T14:01:01.324Z,23.77
2016-09-26T14:06:00.970Z,23.82
2016-09-26T14:11:00.944Z,23.92
2016-09-26T14:16:01.247Z,23.85
2016-09-26T14:21:01.171Z,23.94
2016-09-26T14:26:00.830Z,23.96
2016-09-26T14:31:01.107Z,23.9
2016-09-26T14:36:00.775Z,23.94
2016-09-26T14:41:00.738Z,23.92
2016-09-26T14:46:01.006Z,23.72
2016-09-26T14:51:00.362Z,23.64
2016-09-26T14:56:00.948Z,23.53
2016-09-26T15:01:00.602Z,23.52
2016-09-26T15:06:00.563Z,23.41
2016-09-26T15:11:00.534Z,23.34
2016-09-26T15:16:00.515Z,23.24
2016-09-26T15:21:00.762Z,23.14
2016-09-26T15:26:00.721Z,23.06
2016-09-26T15:31:00.387Z,22.91
2016-09-26T15:36:00.356Z,22.84
2016-09-26T15:41:00.628Z,22.7
2016-09-26T15:46:00.583Z,22.69
2016-09-26T15:51:00.549Z,22.64
2016-09-26T15:56:00.198Z,22.61
2016-09-26T16:01:00.485Z,22.64
2016-09-26T16:06:00.117Z,22.45
2016-09-26T16:11:00.391Z,22.44
2016-09-26T16:15:59.743Z,22.2
2016-09-26T16:21:00.326Z,22.08
2016-09-26T16:26:00.280Z,21.92
2016-09-26T16:31:00.264Z,21.71
2016-09-26T16:36:00.208Z,21.66
2016-09-26T16:40:59.866Z,21.64
2016-09-26T16:46:00.133Z,21.49
2016-09-26T16:50:59.786Z,21.37
2016-09-26T16:56:00.046Z,21.25
2016-09-26T17:01:00.005Z,21.19
2016-09-26T17:05:59.670Z,21.28
2016-09-26T17:10:59.929Z,21.28
2016-09-26T17:15:59.884Z,21.09
2016-09-26T17:20:59.852Z,21.09
2016-09-26T17:25:59.856Z,21
2016-09-26T17:30:59.765Z,20.93
2016-09-26T17:35:59.427Z,20.79
2016-09-26T17:40:59.381Z,20.78
2016-09-26T17:45:59.643Z,20.67
2016-09-26T17:50:59.296Z,20.61
2016-09-26T17:55:59.261Z,20.64
2016-09-26T18:00:59.503Z,20.49
2016-09-26T18:05:59.165Z,20.53
2016-09-26T18:10:58.819Z,20.46
2016-09-26T18:15:59.093Z,20.44
2016-09-26T18:20:59.350Z,20.46
2016-09-26T18:25:59.307Z,20.38
2016-09-26T18:30:59.258Z,20.37
2016-09-26T18:35:58.914Z,20.27
2016-09-26T18:40:59.177Z,20.27
2016-09-26T18:45:58.839Z,20.23
2016-09-26T18:50:59.099Z,20.1
2016-09-26T18:55:59.047Z,20.19
2016-09-26T19:00:59.031Z,20.19
2016-09-26T19:05:59.034Z,20.12
2016-09-26T19:10:58.674Z,20.18
2016-09-26T19:15:58.647Z,20.08
2016-09-26T19:20:58.325Z,20.02
2016-09-26T19:25:58.906Z,19.98
2016-09-26T19:30:58.567Z,19.87
2016-09-26T19:35:58.843Z,19.87
2016-09-26T19:40:58.831Z,19.86
2016-09-26T19:45:58.499Z,19.86
2016-09-26T19:50:58.459Z,19.75
2016-09-26T19:55:58.425Z,19.95
2016-09-26T20:05:54.065Z,20.07
2016-09-26T20:10:54.320Z,19.95
2016-09-26T20:15:53.978Z,19.89
2016-09-26T20:20:53.932Z,19.83
2016-09-26T20:25:53.901Z,19.83
2016-09-26T20:30:54.161Z,19.74
2016-09-26T20:35:53.805Z,19.8
2016-09-26T20:40:53.475Z,19.74
2016-09-26T20:45:53.715Z,19.75
2016-09-26T20:50:53.979Z,19.65
2016-09-26T20:55:53.633Z,19.7
2016-09-26T21:00:53.579Z,19.64
2016-09-26T21:05:53.845Z,19.55
2016-09-26T21:10:53.803Z,19.56
2016-09-26T21:15:53.444Z,19.46
2016-09-26T21:20:53.394Z,19.47
2016-09-26T21:25:53.370Z,19.4
2016-09-26T21:30:53.308Z,19.42
